createdAt,value
2022-10-26T00:01:18.889Z,95664.91
2022-10-26T00:03:48.039Z,95659.19
2022-10-26T00:06:19.197Z,95664.94
2022-10-26T00:08:48.314Z,95664.50
2022-10-26T00:11:17.616Z,95668.91
2022-10-26T00:13:46.761Z,95678.44
2022-10-26T00:16:17.281Z,95676.75
2022-10-26T00:18:45.988Z,95674.84
2022-10-26T00:21:14.773Z,95675.88
2022-10-26T00:23:44.472Z,95676.22
2022-10-26T00:26:13.421Z,95669.88
2022-10-26T00:28:41.743Z,95674.66
2022-10-26T00:31:14.314Z,95671.81
2022-10-26T00:33:43.114Z,95664.13
2022-10-26T00:36:14.009Z,95661.13
2022-10-26T00:38:46.223Z,95593.19
2022-10-26T00:41:16.191Z,95597.28
2022-10-26T00:43:44.398Z,95656.03
2022-10-26T00:46:17.303Z,95651.22
2022-10-26T00:48:48.510Z,95651.13
2022-10-26T00:51:23.934Z,95667.84
2022-10-26T00:53:55.489Z,95664.41
2022-10-26T00:56:24.613Z,95672.50
2022-10-26T00:58:53.578Z,95665.97
2022-10-26T01:01:22.074Z,95678.41
2022-10-26T01:03:51.061Z,95672.66
2022-10-26T01:06:20.234Z,95684.31
2022-10-26T01:08:49.741Z,95680.13
2022-10-26T01:11:19.967Z,95681.00
2022-10-26T01:13:50.017Z,95676.09
2022-10-26T01:16:32.399Z,95689.28
2022-10-26T01:19:23.615Z,95680.50
2022-10-26T01:21:57.556Z,95683.31
2022-10-26T01:24:47.669Z,95676.81
2022-10-26T01:27:35.563Z,95672.41
2022-10-26T01:30:25.224Z,95671.41
2022-10-26T01:33:14.565Z,95665.53
2022-10-26T01:35:50.069Z,95664.25
2022-10-26T01:38:27.153Z,95654.44
2022-10-26T01:41:03.773Z,95660.78
2022-10-26T01:43:35.789Z,95653.91
2022-10-26T01:46:07.666Z,95657.53
2022-10-26T01:48:37.784Z,95667.06
2022-10-26T01:51:07.609Z,95666.44
2022-10-26T01:53:35.899Z,95675.41
2022-10-26T01:56:04.446Z,95671.34
2022-10-26T01:58:57.877Z,95671.75
2022-10-26T02:01:55.332Z,95659.94
2022-10-26T02:04:36.780Z,95678.22
2022-10-26T02:07:12.618Z,95675.28
2022-10-26T02:09:54.974Z,95671.91
2022-10-26T02:12:31.741Z,95675.81
2022-10-26T02:15:06.389Z,95671.25
2022-10-26T02:17:44.321Z,95681.22
2022-10-26T02:20:18.201Z,95685.25
2022-10-26T02:22:49.925Z,95685.78
2022-10-26T02:25:21.877Z,95680.28
2022-10-26T02:27:54.522Z,95683.88
2022-10-26T02:30:23.189Z,95677.06
2022-10-26T02:32:55.793Z,95674.78
2022-10-26T02:35:30.762Z,95683.25
2022-10-26T02:38:01.473Z,95683.56
2022-10-26T02:40:31.170Z,95684.63
2022-10-26T02:43:02.121Z,95667.13
2022-10-26T02:45:36.809Z,95681.34
2022-10-26T02:48:07.444Z,95679.94
2022-10-26T02:50:44.934Z,95677.81
2022-10-26T02:53:23.489Z,95679.31
2022-10-26T02:55:52.725Z,95689.28
2022-10-26T02:58:26.337Z,95647.72
2022-10-26T03:00:55.236Z,95689.44
2022-10-26T03:03:25.034Z,95493.56
2022-10-26T03:05:53.457Z,95693.25
2022-10-26T03:08:21.805Z,95695.97
2022-10-26T03:10:50.056Z,95703.78
2022-10-26T03:13:18.318Z,95701.88
2022-10-26T03:15:46.663Z,95703.78
2022-10-26T03:18:14.866Z,95703.94
2022-10-26T03:20:46.719Z,95686.28
2022-10-26T03:23:14.911Z,95700.22
2022-10-26T03:25:43.162Z,95702.81
2022-10-26T03:28:11.445Z,95706.69
2022-10-26T03:30:39.681Z,95710.50
2022-10-26T03:33:08.081Z,95703.31
2022-10-26T03:35:36.366Z,95708.50
2022-10-26T03:38:05.993Z,95704.31
2022-10-26T03:40:35.712Z,95719.03
2022-10-26T03:43:03.996Z,95722.16
2022-10-26T03:45:32.334Z,95721.09
2022-10-26T03:48:00.540Z,95712.19
2022-10-26T03:50:28.828Z,95722.00
2022-10-26T03:52:56.976Z,95713.63
2022-10-26T03:55:26.561Z,95712.06
2022-10-26T03:57:54.824Z,95710.38
2022-10-26T04:00:23.156Z,95717.81
2022-10-26T04:02:56.786Z,95718.94
2022-10-26T04:05:25.857Z,95711.53
2022-10-26T04:07:54.763Z,95721.19
2022-10-26T04:10:23.213Z,95722.91
2022-10-26T04:12:52.892Z,95727.00
2022-10-26T04:15:21.585Z,95725.25
2022-10-26T04:17:50.190Z,95738.72
2022-10-26T04:20:18.689Z,95733.53
2022-10-26T04:22:46.853Z,95744.28
2022-10-26T04:25:15.103Z,95741.41
2022-10-26T04:27:43.434Z,95738.94
2022-10-26T04:30:14.475Z,95733.50
2022-10-26T04:32:42.739Z,95741.28
2022-10-26T04:35:13.299Z,95728.22
2022-10-26T04:37:43.783Z,95737.69
2022-10-26T04:40:12.845Z,95747.78
2022-10-26T04:42:44.837Z,95740.41
2022-10-26T04:45:15.957Z,95747.22
2022-10-26T04:47:44.626Z,95747.06
2022-10-26T04:50:14.593Z,95740.94
2022-10-26T04:52:42.831Z,95751.28
2022-10-26T04:55:11.221Z,95752.03
2022-10-26T04:57:39.473Z,95753.34
2022-10-26T05:00:08.597Z,95753.81
2022-10-26T05:02:38.244Z,95762.03
2022-10-26T05:05:08.841Z,95761.75
2022-10-26T05:07:39.562Z,95765.00
2022-10-26T05:10:08.743Z,95768.38
2022-10-26T05:12:37.040Z,95764.84
2022-10-26T05:15:08.499Z,95761.59
2022-10-26T05:17:38.380Z,95764.22
2022-10-26T05:20:10.960Z,95774.50
2022-10-26T05:22:40.320Z,95770.88
2022-10-26T05:25:09.463Z,95775.50
2022-10-26T05:27:37.744Z,95773.38
2022-10-26T05:32:41.022Z,95781.72
2022-10-26T05:35:09.752Z,95779.06
2022-10-26T05:37:38.017Z,95782.25
2022-10-26T05:40:07.452Z,95786.25
2022-10-26T05:42:35.748Z,95786.41
2022-10-26T05:45:03.964Z,95783.91
2022-10-26T05:47:32.308Z,95780.41
2022-10-26T05:50:01.988Z,95787.84
2022-10-26T05:52:30.233Z,95792.94
2022-10-26T05:54:58.517Z,95797.03
2022-10-26T05:57:27.425Z,95800.47
2022-10-26T05:59:56.256Z,95796.53
2022-10-26T06:02:34.133Z,95796.25
2022-10-26T06:05:06.288Z,95797.59
2022-10-26T06:07:35.133Z,95800.09
2022-10-26T06:10:03.921Z,95799.13
2022-10-26T06:12:32.784Z,95802.91
2022-10-26T06:15:01.652Z,95808.66
2022-10-26T06:17:40.588Z,95806.06
2022-10-26T06:20:30.373Z,95809.41
2022-10-26T06:23:11.826Z,95810.75
2022-10-26T06:25:48.216Z,95811.09
2022-10-26T06:28:28.653Z,95819.31
2022-10-26T06:30:58.683Z,95814.28
2022-10-26T06:33:30.267Z,95820.53
2022-10-26T06:36:13.580Z,95817.81
2022-10-26T06:38:44.570Z,95816.84
2022-10-26T06:41:16.487Z,95808.47
2022-10-26T06:43:45.624Z,95816.69
2022-10-26T06:46:24.009Z,95807.19
2022-10-26T06:48:59.673Z,95807.94
2022-10-26T06:51:32.130Z,95801.03
2022-10-26T06:54:06.393Z,95804.44
2022-10-26T06:56:36.255Z,95810.84
2022-10-26T06:59:14.200Z,95817.31
2022-10-26T07:01:42.554Z,95819.66
2022-10-26T07:04:10.916Z,95831.50
2022-10-26T07:06:40.646Z,95830.22
2022-10-26T07:09:08.917Z,95831.06
2022-10-26T07:11:37.161Z,95828.13
2022-10-26T07:14:05.450Z,95828.72
2022-10-26T07:16:33.765Z,95820.34
2022-10-26T07:19:02.012Z,95767.53
2022-10-26T07:21:30.243Z,95799.88
2022-10-26T07:23:59.946Z,95818.47
2022-10-26T07:26:28.458Z,95826.84
2022-10-26T07:28:57.627Z,95815.25
2022-10-26T07:31:26.646Z,95813.13
2022-10-26T07:33:55.053Z,95799.78
2022-10-26T07:36:23.618Z,95806.47
2022-10-26T07:38:54.096Z,95808.22
2022-10-26T07:41:23.696Z,95798.13
2022-10-26T07:43:51.954Z,95795.19
2022-10-26T07:46:20.194Z,95801.03
2022-10-26T07:48:48.444Z,95799.47
2022-10-26T07:51:16.770Z,95800.47
2022-10-26T07:53:45.084Z,95795.78
2022-10-26T07:56:13.698Z,95797.94
2022-10-26T07:58:43.328Z,95793.38
2022-10-26T08:01:13.556Z,95787.28
2022-10-26T08:03:42.443Z,95788.03
2022-10-26T08:06:11.119Z,95772.91
2022-10-26T08:08:42.446Z,95788.63
2022-10-26T08:11:13.345Z,95784.47
2022-10-26T08:13:43.019Z,95781.72
2022-10-26T08:16:11.462Z,95775.97
2022-10-26T08:18:39.902Z,95773.88
2022-10-26T08:21:13.658Z,95776.31
2022-10-26T08:23:46.436Z,95768.44
2022-10-26T08:26:14.741Z,95762.09
2022-10-26T08:28:44.329Z,95764.09
2022-10-26T08:31:12.692Z,95756.63
2022-10-26T08:33:44.865Z,95761.31
2022-10-26T08:36:14.795Z,95760.44
2022-10-26T08:38:43.044Z,95766.81
2022-10-26T08:41:11.761Z,95762.00
2022-10-26T08:43:46.655Z,95765.25
2022-10-26T08:46:18.759Z,95761.78
2022-10-26T08:48:51.537Z,95761.97
2022-10-26T08:51:24.625Z,95763.41
2022-10-26T08:53:58.413Z,95695.91
2022-10-26T08:56:28.820Z,95757.09
2022-10-26T08:59:02.729Z,95755.06
2022-10-26T09:01:33.484Z,95755.41
2022-10-26T09:04:04.102Z,95749.38
2022-10-26T09:06:43.241Z,95743.78
2022-10-26T09:09:18.977Z,95741.28
2022-10-26T09:12:00.970Z,95731.47
2022-10-26T09:14:43.598Z,95739.91
2022-10-26T09:17:20.803Z,95738.97
2022-10-26T09:20:27.841Z,95731.97
2022-10-26T09:23:02.355Z,95730.00
2022-10-26T09:25:39.633Z,95729.59
2022-10-26T09:28:15.605Z,95725.94
2022-10-26T09:30:47.490Z,95722.28
2022-10-26T09:33:18.262Z,95725.69
2022-10-26T09:35:51.322Z,95713.25
2022-10-26T09:38:26.448Z,95712.22
2022-10-26T09:41:01.204Z,95712.38
2022-10-26T09:43:34.411Z,95715.88
2022-10-26T09:46:04.199Z,95711.66
2022-10-26T09:48:38.400Z,95713.81
2022-10-26T09:51:07.067Z,95708.66
2022-10-26T09:53:35.313Z,95706.84
2022-10-26T09:56:08.164Z,95704.78
2022-10-26T09:58:41.981Z,95704.47
2022-10-26T10:01:22.931Z,95697.78
2022-10-26T10:04:11.713Z,95692.97
2022-10-26T10:06:40.113Z,95692.19
2022-10-26T10:09:12.337Z,95694.16
2022-10-26T10:11:41.693Z,95690.88
2022-10-26T10:14:15.121Z,95679.66
2022-10-26T10:16:53.089Z,95669.25
2022-10-26T10:19:25.976Z,95677.00
2022-10-26T10:21:58.176Z,95666.50
2022-10-26T10:24:29.148Z,95614.41
2022-10-26T10:27:00.122Z,95663.94
2022-10-26T10:29:28.824Z,95663.69
2022-10-26T10:32:00.196Z,95625.91
2022-10-26T10:34:29.181Z,95652.06
2022-10-26T10:36:57.839Z,95645.31
2022-10-26T10:39:37.274Z,95635.63
2022-10-26T10:42:07.755Z,95632.19
2022-10-26T10:44:36.384Z,95638.88
2022-10-26T10:47:07.854Z,95638.53
2022-10-26T10:49:36.494Z,95620.88
2022-10-26T10:52:05.005Z,95627.16
2022-10-26T10:54:36.081Z,95622.00
2022-10-26T10:57:16.534Z,95613.22
2022-10-26T10:59:52.026Z,95617.00
2022-10-26T11:03:04.074Z,95608.22
2022-10-26T11:05:48.197Z,95602.06
2022-10-26T11:08:22.392Z,95607.28
2022-10-26T11:10:55.151Z,95588.25
2022-10-26T11:13:28.425Z,95601.72
2022-10-26T11:16:03.018Z,95591.03
2022-10-26T11:18:37.612Z,95587.03
2022-10-26T11:21:16.419Z,95593.06
2022-10-26T11:23:49.792Z,95591.34
2022-10-26T11:26:26.338Z,95580.94
2022-10-26T11:29:01.089Z,95595.03
2022-10-26T11:31:33.729Z,95582.09
2022-10-26T11:34:19.184Z,95578.03
2022-10-26T11:36:54.282Z,95578.31
2022-10-26T11:39:30.280Z,95573.31
2022-10-26T11:42:07.273Z,95577.34
2022-10-26T11:44:41.372Z,95572.19
2022-10-26T11:47:16.293Z,95575.16
2022-10-26T11:49:51.541Z,95563.66
2022-10-26T11:52:23.844Z,95574.94
2022-10-26T11:54:55.572Z,95571.09
2022-10-26T11:57:25.277Z,95570.69
2022-10-26T11:59:56.373Z,95458.50
2022-10-26T12:02:26.244Z,95564.69
2022-10-26T12:05:01.186Z,95568.69
2022-10-26T12:07:33.377Z,95569.78
2022-10-26T12:10:03.422Z,95562.19
2022-10-26T12:12:39.187Z,95568.13
2022-10-26T12:15:19.485Z,95564.13
2022-10-26T12:17:54.135Z,95564.78
2022-10-26T12:21:07.895Z,95561.06
2022-10-26T12:23:41.023Z,95566.97
2022-10-26T12:26:43.032Z,95559.47
2022-10-26T12:29:30.167Z,95562.19
2022-10-26T12:31:58.847Z,95566.22
2022-10-26T12:35:00.909Z,95564.94
2022-10-26T12:37:37.067Z,95546.09
2022-10-26T12:40:40.991Z,95563.34
2022-10-26T12:43:38.905Z,95561.81
2022-10-26T12:46:43.637Z,95551.13
2022-10-26T12:49:57.401Z,95560.44
2022-10-26T12:52:52.373Z,95549.91
2022-10-26T12:56:05.564Z,95555.25
2022-10-26T12:59:19.593Z,95559.63
2022-10-26T13:02:22.898Z,95558.34
2022-10-26T13:05:35.835Z,95555.06
2022-10-26T13:08:08.354Z,95560.31
2022-10-26T13:10:38.466Z,95551.97
2022-10-26T13:13:09.022Z,95562.53
2022-10-26T13:15:42.238Z,95549.22
2022-10-26T13:18:12.208Z,95552.44
2022-10-26T13:20:54.684Z,95548.84
2022-10-26T13:23:27.648Z,95544.38
2022-10-26T13:26:09.559Z,95532.44
2022-10-26T13:28:50.263Z,95542.44
2022-10-26T13:31:56.583Z,95547.00
2022-10-26T13:34:27.764Z,95542.00
2022-10-26T13:37:08.716Z,95539.69
2022-10-26T13:39:41.852Z,95546.47
2022-10-26T13:42:17.008Z,95545.53
2022-10-26T13:44:52.588Z,95551.16
2022-10-26T13:47:29.071Z,95540.16
2022-10-26T13:50:01.052Z,95557.56
2022-10-26T13:52:34.235Z,95552.94
2022-10-26T13:55:10.379Z,95561.91
2022-10-26T13:57:43.538Z,95556.63
2022-10-26T14:00:18.846Z,95555.41
2022-10-26T14:02:47.758Z,95558.25
2022-10-26T14:05:18.775Z,95552.31
2022-10-26T14:07:52.689Z,95560.97
2022-10-26T14:10:29.513Z,95570.03
2022-10-26T14:12:58.985Z,95570.72
2022-10-26T14:15:31.489Z,95577.41
2022-10-26T14:18:03.147Z,95573.16
2022-10-26T14:20:33.444Z,95581.59
2022-10-26T14:23:01.717Z,95583.50
2022-10-26T14:25:42.142Z,95584.38
2022-10-26T14:28:23.682Z,95585.09
2022-10-26T14:30:52.572Z,95514.00
2022-10-26T14:33:24.349Z,95580.53
2022-10-26T14:35:53.103Z,95583.28
2022-10-26T14:38:26.563Z,95589.03
2022-10-26T14:40:57.731Z,95593.09
2022-10-26T14:43:27.389Z,95589.34
2022-10-26T14:45:57.433Z,95594.06
2022-10-26T14:48:30.144Z,95581.56
2022-10-26T14:51:07.933Z,95600.16
2022-10-26T14:53:39.214Z,95540.53
2022-10-26T14:56:22.844Z,95601.91
2022-10-26T14:58:51.598Z,95606.13
2022-10-26T15:01:36.356Z,95596.38
2022-10-26T15:04:07.251Z,95616.38
2022-10-26T15:06:41.161Z,95611.06
2022-10-26T15:09:33.212Z,95612.00
2022-10-26T15:12:06.017Z,95622.22
2022-10-26T15:14:35.820Z,95623.75
2022-10-26T15:17:04.514Z,95624.53
2022-10-26T15:19:32.985Z,95631.25
2022-10-26T15:22:01.330Z,95638.97
2022-10-26T15:24:37.460Z,95640.03
2022-10-26T15:27:17.412Z,95657.13
2022-10-26T15:29:47.145Z,95644.91
2022-10-26T15:32:28.483Z,95653.06
2022-10-26T15:35:22.197Z,95656.94
2022-10-26T15:37:51.785Z,95673.91
2022-10-26T15:40:20.531Z,95669.31
2022-10-26T15:42:52.160Z,95671.41
2022-10-26T15:45:23.174Z,95683.78
2022-10-26T15:47:53.349Z,95690.13
2022-10-26T15:50:24.176Z,95690.78
2022-10-26T15:52:57.824Z,95700.72
2022-10-26T15:55:26.101Z,95705.91
2022-10-26T15:57:55.744Z,95695.91
2022-10-26T16:00:24.169Z,95709.19
2022-10-26T16:02:52.452Z,95711.81
2022-10-26T16:05:20.770Z,95710.22
2022-10-26T16:07:49.793Z,95718.41
2022-10-26T16:10:22.920Z,95722.13
2022-10-26T16:12:51.312Z,95728.91
2022-10-26T16:15:23.147Z,95731.59
2022-10-26T16:17:52.471Z,95741.97
2022-10-26T16:20:23.982Z,95736.53
2022-10-26T16:22:53.810Z,95750.97
2022-10-26T16:25:24.492Z,95684.91
2022-10-26T16:27:54.159Z,95759.91
2022-10-26T16:30:29.449Z,95765.16
2022-10-26T16:32:58.885Z,95777.94
2022-10-26T16:35:27.240Z,95780.47
2022-10-26T16:37:55.541Z,95775.06
2022-10-26T16:40:23.865Z,95779.66
2022-10-26T16:42:52.550Z,95791.31
2022-10-26T16:45:20.981Z,95794.09
2022-10-26T16:47:51.001Z,95799.41
2022-10-26T16:50:22.228Z,95799.81
2022-10-26T16:52:50.484Z,95808.56
2022-10-26T16:55:24.585Z,95814.75
2022-10-26T16:57:53.068Z,95813.19
2022-10-26T17:00:21.450Z,95823.56
2022-10-26T17:02:51.116Z,95815.22
2022-10-26T17:05:19.361Z,95837.19
2022-10-26T17:07:48.855Z,95850.84
2022-10-26T17:10:17.550Z,95854.56
2022-10-26T17:12:45.812Z,95855.94
2022-10-26T17:15:17.255Z,95865.72
2022-10-26T17:17:48.144Z,95866.50
2022-10-26T17:20:18.395Z,95868.97
2022-10-26T17:22:46.739Z,95874.03
2022-10-26T17:25:15.116Z,95885.91
2022-10-26T17:27:46.441Z,95884.97
2022-10-26T17:30:15.881Z,95886.22
2022-10-26T17:32:44.337Z,95888.56
2022-10-26T17:35:13.536Z,95894.22
2022-10-26T17:37:43.362Z,95895.47
2022-10-26T17:40:12.651Z,95904.56
2022-10-26T17:42:41.372Z,95908.63
2022-10-26T17:45:11.234Z,95901.69
2022-10-26T17:47:40.028Z,95909.47
2022-10-26T17:50:09.474Z,95922.44
2022-10-26T17:52:38.340Z,95918.66
2022-10-26T17:55:08.551Z,95913.97
2022-10-26T17:57:37.629Z,95924.53
2022-10-26T18:00:06.575Z,95920.78
2022-10-26T18:02:37.711Z,95928.47
2022-10-26T18:05:07.595Z,95927.72
2022-10-26T18:07:37.156Z,95928.41
2022-10-26T18:10:19.607Z,95930.88
2022-10-26T18:12:55.925Z,95937.22
2022-10-26T18:15:25.176Z,95934.44
2022-10-26T18:17:58.187Z,95937.09
2022-10-26T18:20:28.942Z,95947.06
2022-10-26T18:22:57.765Z,95927.72
2022-10-26T18:25:27.612Z,95945.03
2022-10-26T18:27:56.342Z,95936.78
2022-10-26T18:30:24.705Z,95943.31
2022-10-26T18:32:54.085Z,95931.47
2022-10-26T18:35:23.361Z,95941.47
2022-10-26T18:37:51.826Z,95940.34
2022-10-26T18:40:20.429Z,95940.00
2022-10-26T18:42:50.070Z,95947.47
2022-10-26T18:45:18.490Z,95956.59
2022-10-26T18:47:46.736Z,95934.91
2022-10-26T18:50:15.195Z,95959.78
2022-10-26T18:52:43.457Z,95949.78
2022-10-26T18:55:11.801Z,95960.59
2022-10-26T18:57:40.233Z,95967.31
2022-10-26T19:00:11.332Z,95965.66
2022-10-26T19:02:39.583Z,95972.94
2022-10-26T19:05:08.853Z,95961.41
2022-10-26T19:07:39.165Z,95972.41
2022-10-26T19:10:08.723Z,95984.41
2022-10-26T19:12:36.996Z,95986.25
2022-10-26T19:15:05.818Z,95995.94
2022-10-26T19:17:35.686Z,95982.03
2022-10-26T19:20:04.165Z,95990.00
2022-10-26T19:22:32.428Z,95998.78
2022-10-26T19:25:00.643Z,96003.31
2022-10-26T19:27:28.869Z,96015.31
2022-10-26T19:29:57.160Z,95999.50
2022-10-26T19:32:28.331Z,96012.94
2022-10-26T19:34:58.038Z,96023.41
2022-10-26T19:37:29.081Z,95999.19
2022-10-26T19:39:57.402Z,96024.56
2022-10-26T19:42:25.643Z,96019.97
2022-10-26T19:44:53.944Z,96021.34
2022-10-26T19:47:22.216Z,96018.47
2022-10-26T19:49:50.463Z,96022.66
2022-10-26T19:52:20.183Z,96028.03
2022-10-26T19:54:48.527Z,96027.53
2022-10-26T19:57:16.904Z,96032.72
2022-10-26T19:59:45.203Z,96032.63
2022-10-26T20:02:13.466Z,96033.41
2022-10-26T20:04:41.660Z,96043.25
2022-10-26T20:07:10.003Z,96046.34
2022-10-26T20:09:39.734Z,96047.63
2022-10-26T20:12:12.742Z,96051.13
2022-10-26T20:14:41.296Z,96033.53
2022-10-26T20:17:09.508Z,96056.97
2022-10-26T20:19:38.297Z,96053.28
2022-10-26T20:22:06.566Z,96065.09
2022-10-26T20:24:34.863Z,96049.94
2022-10-26T20:27:04.965Z,96067.75
2022-10-26T20:29:33.257Z,96074.41
2022-10-26T20:32:01.638Z,96071.78
2022-10-26T20:34:29.970Z,96078.13
2022-10-26T20:36:58.180Z,96063.25
2022-10-26T20:39:27.110Z,96067.91
2022-10-26T20:41:55.943Z,96080.13
2022-10-26T20:44:31.317Z,96084.72
2022-10-26T20:47:01.125Z,96078.94
2022-10-26T20:49:29.852Z,96077.66
2022-10-26T20:52:21.885Z,96077.97
2022-10-26T20:54:56.745Z,96087.97
2022-10-26T20:57:33.055Z,96087.97
2022-10-26T21:00:06.183Z,96089.63
2022-10-26T21:02:34.577Z,96090.25
2022-10-26T21:05:02.845Z,96078.50
2022-10-26T21:07:31.043Z,96090.00
2022-10-26T21:09:59.439Z,96075.44
2022-10-26T21:12:27.704Z,96096.88
2022-10-26T21:14:55.988Z,96097.34
2022-10-26T21:17:25.734Z,96097.44
2022-10-26T21:19:54.107Z,96098.50
2022-10-26T21:22:23.008Z,96102.34
2022-10-26T21:24:51.192Z,96104.59
2022-10-26T21:27:19.497Z,96107.34
2022-10-26T21:29:47.751Z,96102.06
2022-10-26T21:32:16.233Z,96100.66
2022-10-26T21:34:45.898Z,96101.44
2022-10-26T21:37:14.202Z,96094.34
2022-10-26T21:39:42.460Z,96101.00
2022-10-26T21:42:10.957Z,96107.56
2022-10-26T21:44:41.460Z,95921.94
2022-10-26T21:47:10.349Z,96111.38
2022-10-26T21:49:38.735Z,96113.19
2022-10-26T21:52:08.952Z,96114.69
2022-10-26T21:54:37.265Z,96115.41
2022-10-26T21:57:05.717Z,96117.63
2022-10-26T21:59:34.008Z,96124.13
2022-10-26T22:02:02.537Z,96119.19
2022-10-26T22:04:30.981Z,96112.03
2022-10-26T22:06:59.251Z,96114.81
2022-10-26T22:09:28.969Z,96112.47
2022-10-26T22:11:57.352Z,96119.16
2022-10-26T22:14:25.744Z,96119.88
2022-10-26T22:16:54.028Z,96123.31
2022-10-26T22:19:24.300Z,96125.81
2022-10-26T22:21:52.592Z,96129.78
2022-10-26T22:24:20.764Z,96137.28
2022-10-26T22:26:50.484Z,96133.13
2022-10-26T22:29:18.916Z,96140.03
2022-10-26T22:31:47.136Z,96131.75
2022-10-26T22:34:16.819Z,96138.09
2022-10-26T22:36:45.317Z,96132.13
2022-10-26T22:39:13.849Z,96133.63
2022-10-26T22:41:42.108Z,96135.25
2022-10-26T22:44:11.791Z,96135.38
2022-10-26T22:46:40.117Z,96073.06
2022-10-26T22:49:08.333Z,96140.59
2022-10-26T22:51:36.699Z,96142.63
2022-10-26T22:54:06.348Z,96143.75
2022-10-26T22:56:36.231Z,96138.38
2022-10-26T22:59:04.801Z,96124.72
2022-10-26T23:01:37.809Z,96129.63
2022-10-26T23:04:06.578Z,96138.72
2022-10-26T23:06:35.356Z,96144.19
2022-10-26T23:09:03.652Z,96138.66
2022-10-26T23:11:32.057Z,96151.72
2022-10-26T23:14:01.609Z,96149.09
2022-10-26T23:16:30.985Z,96141.06
2022-10-26T23:19:00.972Z,96148.03
2022-10-26T23:21:29.759Z,96141.63
2022-10-26T23:23:58.653Z,96143.84
2022-10-26T23:26:26.964Z,96152.63
2022-10-26T23:28:55.238Z,96153.19
2022-10-26T23:31:25.747Z,96156.41
2022-10-26T23:33:55.453Z,96158.69
2022-10-26T23:36:25.287Z,96174.22
2022-10-26T23:38:53.595Z,96174.81
2022-10-26T23:41:21.888Z,96172.69
2022-10-26T23:43:50.108Z,96169.59
2022-10-26T23:46:18.493Z,96175.44
2022-10-26T23:48:46.767Z,96172.94
2022-10-26T23:51:15.072Z,96174.50
2022-10-26T23:53:44.731Z,96174.47
2022-10-26T23:56:12.917Z,96173.06
2022-10-26T23:58:41.208Z,96167.25
